sensor_id;sensor_type;location;lat;lon;timestamp;pressure;altitude;pressure_sealevel;temperature;humidity
46714;BME280;32445;51.376;10.874;2023-02-23T00:01:41;99010.75;;;9.72;54.95
46714;BME280;32445;51.376;10.874;2023-02-23T00:04:41;99014.28;;;9.69;54.41
46714;BME280;32445;51.376;10.874;2023-02-23T00:07:43;99010.84;;;9.69;54.42
46714;BME280;32445;51.376;10.874;2023-02-23T00:10:44;99015.16;;;9.68;54.77
46714;BME280;32445;51.376;10.874;2023-02-23T00:13:46;99008.38;;;9.66;54.30
46714;BME280;32445;51.376;10.874;2023-02-23T00:16:49;99007.50;;;9.65;54.49
46714;BME280;32445;51.376;10.874;2023-02-23T00:19:49;99009.25;;;9.65;55.07
46714;BME280;32445;51.376;10.874;2023-02-23T00:22:55;99005.88;;;9.63;54.76
46714;BME280;32445;51.376;10.874;2023-02-23T00:25:55;98999.88;;;9.61;54.47
46714;BME280;32445;51.376;10.874;2023-02-23T00:28:58;98999.09;;;9.59;55.15
46714;BME280;32445;51.376;10.874;2023-02-23T00:31:59;99000.81;;;9.58;55.25
46714;BME280;32445;51.376;10.874;2023-02-23T00:34:59;98998.25;;;9.57;55.02
46714;BME280;32445;51.376;10.874;2023-02-23T00:38:01;99000.06;;;9.55;55.17
46714;BME280;32445;51.376;10.874;2023-02-23T00:41:06;99002.69;;;9.53;55.12
46714;BME280;32445;51.376;10.874;2023-02-23T00:44:06;99006.22;;;9.50;54.65
46714;BME280;32445;51.376;10.874;2023-02-23T00:47:07;99003.72;;;9.47;55.43
46714;BME280;32445;51.376;10.874;2023-02-23T00:50:12;99013.28;;;9.45;55.83
46714;BME280;32445;51.376;10.874;2023-02-23T00:53:14;99002.91;;;9.45;55.61
46714;BME280;32445;51.376;10.874;2023-02-23T00:56:15;99009.06;;;9.43;55.32
46714;BME280;32445;51.376;10.874;2023-02-23T00:59:16;99003.00;;;9.42;55.89
46714;BME280;32445;51.376;10.874;2023-02-23T01:02:17;99005.66;;;9.41;55.73
46714;BME280;32445;51.376;10.874;2023-02-23T01:05:17;99005.69;;;9.39;55.39
46714;BME280;32445;51.376;10.874;2023-02-23T01:08:19;99007.44;;;9.39;55.43
46714;BME280;32445;51.376;10.874;2023-02-23T01:11:25;99004.91;;;9.35;55.55
46714;BME280;32445;51.376;10.874;2023-02-23T01:14:32;99001.50;;;9.35;55.04
46714;BME280;32445;51.376;10.874;2023-02-23T01:17:33;99004.13;;;9.33;55.36
46714;BME280;32445;51.376;10.874;2023-02-23T01:20:34;99005.06;;;9.31;55.69
46714;BME280;32445;51.376;10.874;2023-02-23T01:23:35;99004.28;;;9.29;55.46
46714;BME280;32445;51.376;10.874;2023-02-23T01:26:38;99002.56;;;9.28;55.54
46714;BME280;32445;51.376;10.874;2023-02-23T01:29:39;98999.19;;;9.26;55.01
46714;BME280;32445;51.376;10.874;2023-02-23T01:32:40;98997.47;;;9.25;55.66
46714;BME280;32445;51.376;10.874;2023-02-23T01:35:40;98990.59;;;9.24;55.89
46714;BME280;32445;51.376;10.874;2023-02-23T01:38:42;98990.63;;;9.22;55.97
46714;BME280;32445;51.376;10.874;2023-02-23T01:41:43;98988.97;;;9.20;55.60
46714;BME280;32445;51.376;10.874;2023-02-23T01:47:44;98992.53;;;9.15;56.25
46714;BME280;32445;51.376;10.874;2023-02-23T01:50:50;98993.50;;;9.13;55.73
46714;BME280;32445;51.376;10.874;2023-02-23T01:53:58;98989.22;;;9.12;56.17
46714;BME280;32445;51.376;10.874;2023-02-23T01:57:01;98989.25;;;9.10;55.73
46714;BME280;32445;51.376;10.874;2023-02-23T02:00:02;98991.84;;;9.10;56.18
46714;BME280;32445;51.376;10.874;2023-02-23T02:03:07;98990.19;;;9.08;56.00
46714;BME280;32445;51.376;10.874;2023-02-23T02:06:14;98991.06;;;9.07;56.15
46714;BME280;32445;51.376;10.874;2023-02-23T02:09:16;98991.13;;;9.05;55.97
46714;BME280;32445;51.376;10.874;2023-02-23T02:12:16;98990.31;;;9.03;55.89
46714;BME280;32445;51.376;10.874;2023-02-23T02:15:18;98991.19;;;9.02;55.89
46714;BME280;32445;51.376;10.874;2023-02-23T02:25:14;98993.09;;;8.95;56.44
46714;BME280;32445;51.376;10.874;2023-02-23T02:28:34;98997.44;;;8.95;56.16
46714;BME280;32445;51.376;10.874;2023-02-23T02:32:14;98985.44;;;8.92;56.47
46714;BME280;32445;51.376;10.874;2023-02-23T02:42:34;98988.97;;;8.90;56.28
46714;BME280;32445;51.376;10.874;2023-02-23T02:49:00;98983.84;;;8.87;56.54
46714;BME280;32445;51.376;10.874;2023-02-23T02:52:30;98995.16;;;8.84;56.65
46714;BME280;32445;51.376;10.874;2023-02-23T02:55:37;98988.19;;;8.86;55.75
46714;BME280;32445;51.376;10.874;2023-02-23T02:58:40;98989.94;;;8.86;56.04
46714;BME280;32445;51.376;10.874;2023-02-23T03:01:42;98991.72;;;8.83;55.84
46714;BME280;32445;51.376;10.874;2023-02-23T03:05:11;98989.16;;;8.82;55.49
46714;BME280;32445;51.376;10.874;2023-02-23T03:12:06;98994.38;;;8.80;56.49
46714;BME280;32445;51.376;10.874;2023-02-23T03:15:55;98989.25;;;8.79;56.66
46714;BME280;32445;51.376;10.874;2023-02-23T03:19:25;98996.19;;;8.78;56.31
46714;BME280;32445;51.376;10.874;2023-02-23T03:23:10;98996.22;;;8.77;57.50
46714;BME280;32445;51.376;10.874;2023-02-23T03:26:43;98995.28;;;8.79;56.23
46714;BME280;32445;51.376;10.874;2023-02-23T03:30:18;98995.31;;;8.78;56.62
46714;BME280;32445;51.376;10.874;2023-02-23T03:37:13;99005.66;;;8.78;57.28
46714;BME280;32445;51.376;10.874;2023-02-23T03:40:38;98998.78;;;8.78;56.59
46714;BME280;32445;51.376;10.874;2023-02-23T03:44:02;99005.66;;;8.78;56.36
46714;BME280;32445;51.376;10.874;2023-02-23T03:47:26;98991.88;;;8.77;56.62
46714;BME280;32445;51.376;10.874;2023-02-23T03:50:52;98988.41;;;8.78;57.12
46714;BME280;32445;51.376;10.874;2023-02-23T03:54:19;98986.66;;;8.79;57.10
46714;BME280;32445;51.376;10.874;2023-02-23T03:57:42;98982.34;;;8.79;57.16
46714;BME280;32445;51.376;10.874;2023-02-23T04:01:04;98994.38;;;8.80;57.29
46714;BME280;32445;51.376;10.874;2023-02-23T04:04:26;98992.63;;;8.81;56.80
46714;BME280;32445;51.376;10.874;2023-02-23T04:07:48;98994.38;;;8.80;57.02
46714;BME280;32445;51.376;10.874;2023-02-23T04:11:30;98995.28;;;8.79;56.70
46714;BME280;32445;51.376;10.874;2023-02-23T04:14:55;98993.56;;;8.80;57.03
46714;BME280;32445;51.376;10.874;2023-02-23T04:17:59;98992.63;;;8.81;57.47
46714;BME280;32445;51.376;10.874;2023-02-23T04:21:00;98996.09;;;8.81;57.61
46714;BME280;32445;51.376;10.874;2023-02-23T04:24:01;98996.09;;;8.81;57.27
46714;BME280;32445;51.376;10.874;2023-02-23T04:27:01;98991.75;;;8.82;57.08
46714;BME280;32445;51.376;10.874;2023-02-23T04:30:02;98996.94;;;8.82;56.79
46714;BME280;32445;51.376;10.874;2023-02-23T04:33:03;99001.28;;;8.81;57.88
46714;BME280;32445;51.376;10.874;2023-02-23T04:36:04;98993.50;;;8.81;56.99
46714;BME280;32445;51.376;10.874;2023-02-23T04:39:04;98999.53;;;8.82;56.85
46714;BME280;32445;51.376;10.874;2023-02-23T04:42:05;99002.09;;;8.82;57.14
46714;BME280;32445;51.376;10.874;2023-02-23T04:45:06;99001.22;;;8.83;57.27
46714;BME280;32445;51.376;10.874;2023-02-23T04:48:06;99001.22;;;8.83;57.52
46714;BME280;32445;51.376;10.874;2023-02-23T04:51:07;99005.53;;;8.82;57.41
46714;BME280;32445;51.376;10.874;2023-02-23T04:54:08;99002.94;;;8.82;57.04
46714;BME280;32445;51.376;10.874;2023-02-23T04:57:08;99000.34;;;8.82;57.45
46714;BME280;32445;51.376;10.874;2023-02-23T05:00:10;98998.69;;;8.81;56.92
46714;BME280;32445;51.376;10.874;2023-02-23T05:03:10;98996.94;;;8.82;57.35
46714;BME280;32445;51.376;10.874;2023-02-23T05:06:11;99005.53;;;8.82;56.98
46714;BME280;32445;51.376;10.874;2023-02-23T05:09:11;99001.28;;;8.81;57.70
46714;BME280;32445;51.376;10.874;2023-02-23T05:12:12;98993.50;;;8.81;57.78
46714;BME280;32445;51.376;10.874;2023-02-23T05:15:13;98997.84;;;8.79;57.37
46714;BME280;32445;51.376;10.874;2023-02-23T05:18:13;98999.56;;;8.80;57.31
46714;BME280;32445;51.376;10.874;2023-02-23T05:21:14;99004.78;;;8.79;57.10
46714;BME280;32445;51.376;10.874;2023-02-23T05:24:15;99000.50;;;8.78;57.35
46714;BME280;32445;51.376;10.874;2023-02-23T05:27:16;99001.41;;;8.77;57.65
46714;BME280;32445;51.376;10.874;2023-02-23T05:30:17;98996.22;;;8.77;56.73
46714;BME280;32445;51.376;10.874;2023-02-23T05:33:17;98997.94;;;8.76;56.93
46714;BME280;32445;51.376;10.874;2023-02-23T05:36:19;98998.81;;;8.75;57.30
46714;BME280;32445;51.376;10.874;2023-02-23T05:39:20;99003.16;;;8.75;57.21
46714;BME280;32445;51.376;10.874;2023-02-23T05:42:21;98998.03;;;8.73;57.60
46714;BME280;32445;51.376;10.874;2023-02-23T05:45:21;99010.97;;;8.73;57.66
46714;BME280;32445;51.376;10.874;2023-02-23T05:48:21;99002.41;;;8.71;57.55
46714;BME280;32445;51.376;10.874;2023-02-23T05:51:22;98999.81;;;8.71;57.17
46714;BME280;32445;51.376;10.874;2023-02-23T05:54:23;99001.53;;;8.71;57.15
46714;BME280;32445;51.376;10.874;2023-02-23T05:57:23;99001.59;;;8.69;57.61
46714;BME280;32445;51.376;10.874;2023-02-23T06:00:23;99005.91;;;8.69;57.53
46714;BME280;32445;51.376;10.874;2023-02-23T06:03:24;99009.38;;;8.68;57.03
46714;BME280;32445;51.376;10.874;2023-02-23T06:06:24;99011.97;;;8.68;57.03
46714;BME280;32445;51.376;10.874;2023-02-23T06:09:25;99015.44;;;8.66;57.00
46714;BME280;32445;51.376;10.874;2023-02-23T06:12:25;99015.50;;;8.65;57.18
46714;BME280;32445;51.376;10.874;2023-02-23T06:15:28;99016.41;;;8.64;57.42
46714;BME280;32445;51.376;10.874;2023-02-23T06:18:29;99026.75;;;8.62;57.29
46714;BME280;32445;51.376;10.874;2023-02-23T06:21:29;99025.09;;;8.61;57.03
46714;BME280;32445;51.376;10.874;2023-02-23T06:24:30;99026.84;;;8.59;57.46
46714;BME280;32445;51.376;10.874;2023-02-23T06:27:31;99021.66;;;8.59;57.50
46714;BME280;32445;51.376;10.874;2023-02-23T06:30:31;99034.66;;;8.58;57.51
46714;BME280;32445;51.376;10.874;2023-02-23T06:33:32;99027.78;;;8.57;57.40
46714;BME280;32445;51.376;10.874;2023-02-23T06:36:32;99032.97;;;8.57;57.59
46714;BME280;32445;51.376;10.874;2023-02-23T06:39:33;99039.03;;;8.56;57.70
46714;BME280;32445;51.376;10.874;2023-02-23T06:42:33;99042.41;;;8.58;57.11
46714;BME280;32445;51.376;10.874;2023-02-23T06:45:35;99042.41;;;8.58;57.30
46714;BME280;32445;51.376;10.874;2023-02-23T06:48:35;99043.28;;;8.58;57.56
46714;BME280;32445;51.376;10.874;2023-02-23T06:51:35;99038.94;;;8.59;57.57
46714;BME280;32445;51.376;10.874;2023-02-23T06:54:36;99040.69;;;8.58;57.80
46714;BME280;32445;51.376;10.874;2023-02-23T06:57:40;99041.50;;;8.60;57.97
46714;BME280;32445;51.376;10.874;2023-02-23T07:00:42;99046.63;;;8.62;58.13
46714;BME280;32445;51.376;10.874;2023-02-23T07:03:42;99045.75;;;8.63;57.85
46714;BME280;32445;51.376;10.874;2023-02-23T07:06:43;99043.94;;;8.65;57.84
46714;BME280;32445;51.376;10.874;2023-02-23T07:09:43;99040.47;;;8.66;58.24
46714;BME280;32445;51.376;10.874;2023-02-23T07:12:43;99037.91;;;8.66;57.76
46714;BME280;32445;51.376;10.874;2023-02-23T07:15:44;99036.97;;;8.69;57.79
46714;BME280;32445;51.376;10.874;2023-02-23T07:18:44;99039.53;;;8.70;58.31
46714;BME280;32445;51.376;10.874;2023-02-23T07:21:44;99048.94;;;8.73;58.35
46714;BME280;32445;51.376;10.874;2023-02-23T07:24:45;99054.03;;;8.76;58.71
46714;BME280;32445;51.376;10.874;2023-02-23T07:27:45;99058.28;;;8.78;58.45
46714;BME280;32445;51.376;10.874;2023-02-23T07:30:46;99048.72;;;8.80;58.16
46714;BME280;32445;51.376;10.874;2023-02-23T07:33:47;99057.34;;;8.81;57.77
46714;BME280;32445;51.376;10.874;2023-02-23T07:36:47;99065.06;;;8.82;58.33
46714;BME280;32445;51.376;10.874;2023-02-23T07:39:47;99052.94;;;8.85;58.21
46714;BME280;32445;51.376;10.874;2023-02-23T07:42:48;99064.91;;;8.89;58.50
46714;BME280;32445;51.376;10.874;2023-02-23T07:45:49;99062.25;;;8.92;58.89
46714;BME280;32445;51.376;10.874;2023-02-23T07:48:50;99067.38;;;8.93;58.39
46714;BME280;32445;51.376;10.874;2023-02-23T07:51:51;99063.91;;;8.94;58.68
46714;BME280;32445;51.376;10.874;2023-02-23T07:54:51;99060.41;;;8.97;58.77
46714;BME280;32445;51.376;10.874;2023-02-23T07:57:52;99057.72;;;9.00;58.63
46714;BME280;32445;51.376;10.874;2023-02-23T08:00:53;99061.16;;;9.00;58.66
46714;BME280;32445;51.376;10.874;2023-02-23T08:03:53;99059.53;;;8.96;59.46
46714;BME280;32445;51.376;10.874;2023-02-23T08:06:54;99073.34;;;8.95;60.22
46714;BME280;32445;51.376;10.874;2023-02-23T08:09:54;99077.56;;;8.99;59.51
46714;BME280;32445;51.376;10.874;2023-02-23T08:12:56;99073.25;;;9.00;59.76
46714;BME280;32445;51.376;10.874;2023-02-23T08:15:57;99073.16;;;9.03;59.92
46714;BME280;32445;51.376;10.874;2023-02-23T08:18:59;99072.28;;;9.04;59.13
46714;BME280;32445;51.376;10.874;2023-02-23T08:21:59;99076.63;;;9.02;59.96
46714;BME280;32445;51.376;10.874;2023-02-23T08:25:00;99076.56;;;9.05;60.41
46714;BME280;32445;51.376;10.874;2023-02-23T08:28:04;99079.03;;;9.10;60.39
46714;BME280;32445;51.376;10.874;2023-02-23T08:31:08;99085.91;;;9.11;60.95
46714;BME280;32445;51.376;10.874;2023-02-23T08:34:09;99078.91;;;9.14;60.64
46714;BME280;32445;51.376;10.874;2023-02-23T08:37:10;99077.91;;;9.20;60.69
46714;BME280;32445;51.376;10.874;2023-02-23T08:40:11;99089.00;;;9.24;60.88
46714;BME280;32445;51.376;10.874;2023-02-23T08:43:14;99085.53;;;9.25;61.86
46714;BME280;32445;51.376;10.874;2023-02-23T08:46:14;99094.91;;;9.29;61.59
46714;BME280;32445;51.376;10.874;2023-02-23T08:49:17;99090.44;;;9.34;62.07
46714;BME280;32445;51.376;10.874;2023-02-23T08:52:18;99087.75;;;9.39;61.15
46714;BME280;32445;51.376;10.874;2023-02-23T08:55:18;99090.16;;;9.45;61.72
46714;BME280;32445;51.376;10.874;2023-02-23T08:58:20;99079.66;;;9.49;61.79
46714;BME280;32445;51.376;10.874;2023-02-23T09:01:22;99078.63;;;9.55;61.95
46714;BME280;32445;51.376;10.874;2023-02-23T09:04:23;99090.53;;;9.62;62.18
46714;BME280;32445;51.376;10.874;2023-02-23T09:07:23;99089.53;;;9.66;62.51
46714;BME280;32445;51.376;10.874;2023-02-23T09:10:24;99088.41;;;9.75;62.13
46714;BME280;32445;51.376;10.874;2023-02-23T09:13:26;99082.25;;;9.79;62.14
46714;BME280;32445;51.376;10.874;2023-02-23T09:16:27;99088.06;;;9.87;62.48
46714;BME280;32445;51.376;10.874;2023-02-23T09:19:27;99088.72;;;9.94;62.26
46714;BME280;32445;51.376;10.874;2023-02-23T09:22:28;99086.78;;;10.01;62.74
46714;BME280;32445;51.376;10.874;2023-02-23T09:25:28;99096.97;;;10.07;62.76
46714;BME280;32445;51.376;10.874;2023-02-23T09:28:31;99091.56;;;10.15;62.55
46714;BME280;32445;51.376;10.874;2023-02-23T09:31:33;99088.72;;;10.22;63.16
46714;BME280;32445;51.376;10.874;2023-02-23T09:34:33;99098.00;;;10.30;62.44
46714;BME280;32445;51.376;10.874;2023-02-23T09:37:34;99097.75;;;10.39;62.38
46714;BME280;32445;51.376;10.874;2023-02-23T09:40:43;99095.91;;;10.43;62.68
46714;BME280;32445;51.376;10.874;2023-02-23T09:43:50;99104.25;;;10.52;62.55
46714;BME280;32445;51.376;10.874;2023-02-23T09:50:21;99092.50;;;10.67;62.63
46714;BME280;32445;51.376;10.874;2023-02-23T09:53:38;99096.50;;;10.78;62.42
46714;BME280;32445;51.376;10.874;2023-02-23T09:56:42;99103.09;;;10.88;62.90
46714;BME280;32445;51.376;10.874;2023-02-23T09:59:44;99095.88;;;10.96;62.53
46714;BME280;32445;51.376;10.874;2023-02-23T10:03:16;99095.59;;;11.04;62.46
46714;BME280;32445;51.376;10.874;2023-02-23T10:06:18;99098.56;;;11.18;62.33
46714;BME280;32445;51.376;10.874;2023-02-23T10:22:34;99086.25;;;11.72;60.73
46714;BME280;32445;51.376;10.874;2023-02-23T10:25:40;99093.69;;;11.82;60.97
46714;BME280;32445;51.376;10.874;2023-02-23T10:28:42;99091.56;;;11.91;60.56
46714;BME280;32445;51.376;10.874;2023-02-23T10:31:47;99099.91;;;12.01;60.18
46714;BME280;32445;51.376;10.874;2023-02-23T10:34:52;99097.81;;;12.11;59.97
46714;BME280;32445;51.376;10.874;2023-02-23T10:37:53;99094.97;;;12.17;60.08
46714;BME280;32445;51.376;10.874;2023-02-23T10:40:55;99087.81;;;12.22;59.92
46714;BME280;32445;51.376;10.874;2023-02-23T10:43:55;99084.00;;;12.31;59.62
46714;BME280;32445;51.376;10.874;2023-02-23T10:47:07;99088.00;;;12.40;60.01
46714;BME280;32445;51.376;10.874;2023-02-23T10:50:13;99091.66;;;12.56;59.48
46714;BME280;32445;51.376;10.874;2023-02-23T10:53:24;99087.88;;;12.63;58.96
46714;BME280;32445;51.376;10.874;2023-02-23T10:56:25;99090.13;;;12.73;58.85
46714;BME280;32445;51.376;10.874;2023-02-23T10:59:26;99088.97;;;12.80;58.57
46714;BME280;32445;51.376;10.874;2023-02-23T11:02:28;99087.53;;;12.93;58.38
46714;BME280;32445;51.376;10.874;2023-02-23T11:05:43;99083.50;;;13.07;58.23
46714;BME280;32445;51.376;10.874;2023-02-23T11:08:44;99082.19;;;13.17;58.15
46714;BME280;32445;51.376;10.874;2023-02-23T11:11:56;99079.22;;;13.25;57.85
46714;BME280;32445;51.376;10.874;2023-02-23T11:18:25;99075.31;;;13.35;57.31
46714;BME280;32445;51.376;10.874;2023-02-23T11:21:27;99070.03;;;13.37;57.18
46714;BME280;32445;51.376;10.874;2023-02-23T11:24:33;99067.25;;;13.41;57.10
46714;BME280;32445;51.376;10.874;2023-02-23T11:27:34;99065.09;;;13.51;57.21
46714;BME280;32445;51.376;10.874;2023-02-23T11:30:36;99061.63;;;13.50;57.13
46714;BME280;32445;51.376;10.874;2023-02-23T11:33:45;99061.63;;;13.50;57.33
46714;BME280;32445;51.376;10.874;2023-02-23T11:37:01;99058.16;;;13.50;57.48
46714;BME280;32445;51.376;10.874;2023-02-23T11:40:17;99060.06;;;13.46;57.39
46714;BME280;32445;51.376;10.874;2023-02-23T11:43:18;99049.63;;;13.46;57.47
46714;BME280;32445;51.376;10.874;2023-02-23T11:46:20;99059.38;;;13.43;57.25
46714;BME280;32445;51.376;10.874;2023-02-23T11:49:44;99055.19;;;13.39;57.00
46714;BME280;32445;51.376;10.874;2023-02-23T11:52:45;99056.81;;;13.41;56.98
46714;BME280;32445;51.376;10.874;2023-02-23T11:55:48;99057.81;;;13.39;56.62
46714;BME280;32445;51.376;10.874;2023-02-23T11:58:53;99051.63;;;13.41;57.03
46714;BME280;32445;51.376;10.874;2023-02-23T12:02:02;99051.03;;;13.35;57.17
46714;BME280;32445;51.376;10.874;2023-02-23T12:05:16;99053.81;;;13.30;57.04
46714;BME280;32445;51.376;10.874;2023-02-23T12:08:42;99051.28;;;13.28;57.58
46714;BME280;32445;51.376;10.874;2023-02-23T12:11:50;99044.31;;;13.29;57.54
46714;BME280;32445;51.376;10.874;2023-02-23T12:15:11;99041.69;;;13.29;57.23
46714;BME280;32445;51.376;10.874;2023-02-23T12:25:01;99032.97;;;13.30;57.64
46714;BME280;32445;51.376;10.874;2023-02-23T12:28:21;99035.56;;;13.30;57.59
46714;BME280;32445;51.376;10.874;2023-02-23T12:31:46;99037.53;;;13.25;57.61
46714;BME280;32445;51.376;10.874;2023-02-23T12:35:05;99034.84;;;13.26;57.41
46714;BME280;32445;51.376;10.874;2023-02-23T12:47:36;99029.56;;;13.28;57.41
46714;BME280;32445;51.376;10.874;2023-02-23T12:50:50;99037.38;;;13.28;57.59
46714;BME280;32445;51.376;10.874;2023-02-23T12:53:52;99035.72;;;13.27;57.32
46714;BME280;32445;51.376;10.874;2023-02-23T12:57:02;99030.38;;;13.30;57.51
46714;BME280;32445;51.376;10.874;2023-02-23T13:03:53;99030.56;;;13.25;57.59
46714;BME280;32445;51.376;10.874;2023-02-23T13:07:19;99035.81;;;13.24;57.59
46714;BME280;32445;51.376;10.874;2023-02-23T13:10:29;99027.63;;;13.33;57.63
46714;BME280;32445;51.376;10.874;2023-02-23T13:17:03;99035.34;;;13.15;57.46
46714;BME280;32445;51.376;10.874;2023-02-23T13:20:34;99026.94;;;13.09;57.83
46714;BME280;32445;51.376;10.874;2023-02-23T13:27:26;99030.31;;;13.11;57.23
46714;BME280;32445;51.376;10.874;2023-02-23T13:30:29;99027.59;;;13.14;57.18
46714;BME280;32445;51.376;10.874;2023-02-23T13:33:35;99029.53;;;13.09;57.19
46714;BME280;32445;51.376;10.874;2023-02-23T13:36:37;99022.00;;;13.03;57.23
46714;BME280;32445;51.376;10.874;2023-02-23T13:46:51;99020.31;;;13.02;57.70
46714;BME280;32445;51.376;10.874;2023-02-23T13:50:03;99016.72;;;13.04;57.52
46714;BME280;32445;51.376;10.874;2023-02-23T13:53:27;99011.84;;;12.96;57.46
46714;BME280;32445;51.376;10.874;2023-02-23T13:56:30;99012.63;;;12.98;57.40
46714;BME280;32445;51.376;10.874;2023-02-23T13:59:41;99018.97;;;12.93;57.62
46714;BME280;32445;51.376;10.874;2023-02-23T14:02:41;99022.41;;;12.93;57.68
46714;BME280;32445;51.376;10.874;2023-02-23T14:05:43;99026.78;;;12.93;57.87
46714;BME280;32445;51.376;10.874;2023-02-23T14:08:50;99028.25;;;12.98;57.61
46714;BME280;32445;51.376;10.874;2023-02-23T14:12:16;99020.38;;;13.00;57.39
46714;BME280;32445;51.376;10.874;2023-02-23T14:18:31;99024.63;;;13.03;57.46
46714;BME280;32445;51.376;10.874;2023-02-23T14:22:05;99017.69;;;13.02;57.61
46714;BME280;32445;51.376;10.874;2023-02-23T14:31:33;99018.59;;;13.01;57.49
46714;BME280;32445;51.376;10.874;2023-02-23T14:34:44;99016.94;;;13.00;57.53
46714;BME280;32445;51.376;10.874;2023-02-23T14:37:54;99015.31;;;12.97;57.64
46714;BME280;32445;51.376;10.874;2023-02-23T14:40:55;99013.41;;;13.01;57.56
46714;BME280;32445;51.376;10.874;2023-02-23T14:47:17;99006.44;;;13.01;57.45
46714;BME280;32445;51.376;10.874;2023-02-23T14:50:25;99013.31;;;13.02;57.36
46714;BME280;32445;51.376;10.874;2023-02-23T14:53:25;99013.16;;;13.07;57.59
46714;BME280;32445;51.376;10.874;2023-02-23T14:56:28;99012.34;;;13.05;57.46
46714;BME280;32445;51.376;10.874;2023-02-23T14:59:37;99011.75;;;12.98;57.69
46714;BME280;32445;51.376;10.874;2023-02-23T15:02:38;99016.22;;;12.96;57.92
46714;BME280;32445;51.376;10.874;2023-02-23T15:08:51;99006.06;;;12.90;57.98
46714;BME280;32445;51.376;10.874;2023-02-23T15:11:52;99007.63;;;12.94;58.13
46714;BME280;32445;51.376;10.874;2023-02-23T15:14:59;99009.38;;;12.93;58.02
46714;BME280;32445;51.376;10.874;2023-02-23T15:18:01;99005.88;;;12.94;57.82
46714;BME280;32445;51.376;10.874;2023-02-23T15:21:22;99002.50;;;12.92;57.92
46714;BME280;32445;51.376;10.874;2023-02-23T15:24:30;99003.13;;;12.97;57.90
46714;BME280;32445;51.376;10.874;2023-02-23T15:27:39;98998.63;;;13.01;57.91
46714;BME280;32445;51.376;10.874;2023-02-23T15:30:46;99006.31;;;13.04;57.98
46714;BME280;32445;51.376;10.874;2023-02-23T15:33:47;99010.66;;;13.04;57.79
46714;BME280;32445;51.376;10.874;2023-02-23T15:36:58;99007.13;;;13.05;57.75
46714;BME280;32445;51.376;10.874;2023-02-23T15:40:03;99007.06;;;13.06;57.99
46714;BME280;32445;51.376;10.874;2023-02-23T15:43:07;99007.94;;;13.07;57.91
46714;BME280;32445;51.376;10.874;2023-02-23T15:46:19;99009.59;;;13.08;57.92
46714;BME280;32445;51.376;10.874;2023-02-23T15:49:28;99010.41;;;13.10;57.77
46714;BME280;32445;51.376;10.874;2023-02-23T15:52:30;99008.34;;;13.16;57.35
46714;BME280;32445;51.376;10.874;2023-02-23T15:55:35;99005.88;;;13.13;57.73
46714;BME280;32445;51.376;10.874;2023-02-23T15:58:38;99004.31;;;13.09;57.89
46714;BME280;32445;51.376;10.874;2023-02-23T16:01:43;99002.84;;;13.04;57.89
46714;BME280;32445;51.376;10.874;2023-02-23T16:04:46;99009.06;;;13.01;57.96
46714;BME280;32445;51.376;10.874;2023-02-23T16:08:06;99002.44;;;12.94;58.02
46714;BME280;32445;51.376;10.874;2023-02-23T16:11:13;99003.25;;;12.94;57.89
46714;BME280;32445;51.376;10.874;2023-02-23T16:14:16;98999.69;;;12.97;57.71
46714;BME280;32445;51.376;10.874;2023-02-23T16:17:42;99008.47;;;12.94;58.02
46714;BME280;32445;51.376;10.874;2023-02-23T16:20:51;99007.56;;;12.95;58.04
46714;BME280;32445;51.376;10.874;2023-02-23T16:23:56;99012.69;;;12.97;57.91
46714;BME280;32445;51.376;10.874;2023-02-23T16:26:59;99016.16;;;12.97;58.09
46714;BME280;32445;51.376;10.874;2023-02-23T16:30:22;99010.16;;;12.95;58.00
46714;BME280;32445;51.376;10.874;2023-02-23T16:34:16;99012.94;;;12.91;58.19
46714;BME280;32445;51.376;10.874;2023-02-23T16:37:23;99019.16;;;12.88;58.08
46714;BME280;32445;51.376;10.874;2023-02-23T16:40:25;99016.81;;;12.82;58.67
46714;BME280;32445;51.376;10.874;2023-02-23T16:43:25;99006.38;;;12.82;58.30
46714;BME280;32445;51.376;10.874;2023-02-23T16:46:39;99011.66;;;12.80;58.54
46714;BME280;32445;51.376;10.874;2023-02-23T16:49:52;99005.63;;;12.80;58.36
46714;BME280;32445;51.376;10.874;2023-02-23T16:52:53;99009.78;;;12.84;58.24
46714;BME280;32445;51.376;10.874;2023-02-23T16:55:58;99010.69;;;12.83;58.31
46714;BME280;32445;51.376;10.874;2023-02-23T16:59:01;99014.34;;;12.79;58.99
46714;BME280;32445;51.376;10.874;2023-02-23T17:02:03;99013.50;;;12.78;58.94
46714;BME280;32445;51.376;10.874;2023-02-23T17:05:13;99019.53;;;12.79;58.74
46714;BME280;32445;51.376;10.874;2023-02-23T17:08:14;99016.94;;;12.79;58.48
46714;BME280;32445;51.376;10.874;2023-02-23T17:11:15;99016.09;;;12.78;58.54
46714;BME280;32445;51.376;10.874;2023-02-23T17:14:24;99026.59;;;12.77;58.72
46714;BME280;32445;51.376;10.874;2023-02-23T17:17:26;99038.88;;;12.73;58.82
46714;BME280;32445;51.376;10.874;2023-02-23T17:20:27;99028.59;;;12.70;58.66
46714;BME280;32445;51.376;10.874;2023-02-23T17:23:29;99042.72;;;12.64;59.01
46714;BME280;32445;51.376;10.874;2023-02-23T17:26:37;99042.31;;;12.53;58.86
46714;BME280;32445;51.376;10.874;2023-02-23T17:29:39;99044.53;;;12.42;59.31
46714;BME280;32445;51.376;10.874;2023-02-23T17:32:40;99052.47;;;12.39;59.47
46714;BME280;32445;51.376;10.874;2023-02-23T17:35:41;99047.50;;;12.33;59.81
46714;BME280;32445;51.376;10.874;2023-02-23T17:38:41;99045.03;;;12.29;59.96
46714;BME280;32445;51.376;10.874;2023-02-23T17:41:45;99041.00;;;12.22;60.49
46714;BME280;32445;51.376;10.874;2023-02-23T17:44:45;99036.69;;;12.21;60.30
46714;BME280;32445;51.376;10.874;2023-02-23T17:47:46;99038.19;;;12.27;59.57
46714;BME280;32445;51.376;10.874;2023-02-23T17:50:46;99041.44;;;12.32;59.94
46714;BME280;32445;51.376;10.874;2023-02-23T17:53:47;99036.19;;;12.34;59.39
46714;BME280;32445;51.376;10.874;2023-02-23T17:56:47;99031.97;;;12.31;59.46